Time;durP1;ratioP1;P1;durP2;ratioP2;P2;SDS_P1;SDS_P2;PMS_P1;PMS_P2;Temp;Humidity;BMP_temperature;BMP_pressure;BME280_temperature;BME280_humidity;BME280_pressure;Samples;Min_cycle;Max_cycle;Signal;HPM_P1;HPM_P2
2021/12/10 00:02:08;;;;;;;40.12;17.55;;;;;;;9.62;89.87;100947.95;1706515;84;21567;-52
2021/12/10 00:05:16;;;;;;;30.70;17.32;;;;;;;9.62;89.84;100955.28;1706992;81;21768;-54
2021/12/10 00:08:22;;;;;;;33.83;16.20;;;;;;;9.60;89.80;100948.61;1706382;83;21369;-53
2021/12/10 00:11:32;;;;;;;31.75;17.70;;;;;;;9.60;89.78;100951.84;1706223;83;21377;-53
2021/12/10 00:14:38;;;;;;;37.15;15.45;;;;;;;9.58;89.81;100949.27;1706286;83;21338;-52
2021/12/10 00:17:44;;;;;;;38.15;17.07;;;;;;;9.58;89.86;100951.13;1706399;83;21764;-50
2021/12/10 00:20:57;;;;;;;36.90;16.65;;;;;;;9.58;89.92;100952.00;1706306;83;21426;-53
2021/12/10 00:24:00;;;;;;;35.23;15.20;;;;;;;9.56;89.94;100947.19;1706360;83;21398;-53
2021/12/10 00:27:08;;;;;;;31.10;14.65;;;;;;;9.53;89.87;100945.30;1706246;83;21244;-52
2021/12/10 00:30:23;;;;;;;27.77;15.00;;;;;;;9.52;89.99;100951.27;1733411;82;21263;-51
2021/12/10 00:33:28;;;;;;;28.47;13.98;;;;;;;9.52;90.05;100954.00;1733350;82;22012;-51
2021/12/10 00:36:36;;;;;;;28.15;13.70;;;;;;;9.51;90.10;100956.39;1740148;82;21833;-51
2021/12/10 00:39:48;;;;;;;25.00;12.78;;;;;;;9.50;90.05;100954.65;1740892;82;21232;-51
2021/12/10 00:42:53;;;;;;;28.38;12.47;;;;;;;9.51;89.93;100960.48;1740498;82;21911;-52
2021/12/10 00:46:00;;;;;;;27.37;12.10;;;;;;;9.47;89.84;100959.06;1739916;82;21187;-52
2021/12/10 00:49:08;;;;;;;18.55;11.35;;;;;;;9.47;89.82;100962.29;1740220;82;21375;-51
2021/12/10 00:52:15;;;;;;;18.32;11.33;;;;;;;9.46;89.81;100961.45;1740624;82;21209;-52
2021/12/10 00:55:21;;;;;;;19.62;10.60;;;;;;;9.46;89.68;100968.28;1740528;82;21757;-52
2021/12/10 00:58:29;;;;;;;20.72;12.50;;;;;;;9.41;89.41;100969.25;1739964;81;21205;-52
2021/12/10 01:01:37;;;;;;;23.55;11.30;;;;;;;9.37;89.37;100971.08;1740199;82;21694;-52
2021/12/10 01:04:45;;;;;;;30.52;12.43;;;;;;;9.35;89.51;100973.97;1739682;82;21272;-51
2021/12/10 01:07:50;;;;;;;26.12;11.05;;;;;;;9.30;89.37;100981.77;1739997;82;21220;-51
2021/12/10 01:11:00;;;;;;;31.65;11.60;;;;;;;9.24;89.53;100977.41;1740065;82;21718;-52
2021/12/10 01:14:17;;;;;;;19.48;11.57;;;;;;;9.19;89.74;100972.41;1739919;82;21702;-51
2021/12/10 01:24:35;;;;;;;24.15;11.83;;;;;;;9.15;90.09;100970.14;1740292;82;21248;-51
2021/12/10 01:27:33;;;;;;;23.30;12.65;;;;;;;9.15;90.29;100976.44;1740696;82;21891;-51
2021/12/10 01:30:43;;;;;;;26.15;12.80;;;;;;;9.15;90.54;100985.16;1740528;82;21217;-50
2021/12/10 01:33:49;;;;;;;27.37;12.18;;;;;;;9.17;90.76;100977.66;1740261;82;21338;-52
2021/12/10 01:36:56;;;;;;;26.55;12.20;;;;;;;9.18;90.70;100978.87;1740704;81;21378;-52
2021/12/10 01:40:02;;;;;;;40.30;12.78;;;;;;;9.20;90.64;100986.41;1764843;81;21370;-53
2021/12/10 01:43:12;;;;;;;28.90;13.28;;;;;;;9.18;90.50;100982.13;1765103;81;21390;-52
2021/12/10 01:46:29;;;;;;;33.28;13.15;;;;;;;9.14;90.46;100989.76;1765301;81;21212;-52
2021/12/10 01:49:31;;;;;;;31.95;13.10;;;;;;;9.11;90.54;100991.43;1765221;81;21362;-52
2021/12/10 01:52:37;;;;;;;25.12;11.80;;;;;;;9.06;90.46;100986.92;1765157;81;21346;-52
2021/12/10 01:55:47;;;;;;;32.70;13.85;;;;;;;9.02;90.77;100990.45;1765168;81;21649;-52
2021/12/10 01:58:55;;;;;;;28.20;11.78;;;;;;;9.03;90.88;100999.52;1765083;81;21288;-52
2021/12/10 02:02:07;;;;;;;26.60;12.98;;;;;;;8.94;90.51;101003.16;1764898;81;21328;-52
2021/12/10 02:05:14;;;;;;;29.37;13.40;;;;;;;8.82;90.55;101007.94;1764794;81;21236;-52
2021/12/10 02:08:20;;;;;;;28.42;13.38;;;;;;;8.70;90.64;101004.19;1752321;79;21797;-52
2021/12/10 02:11:25;;;;;;;24.63;13.40;;;;;;;8.65;91.06;100996.94;1770554;81;21181;-51
2021/12/10 02:14:32;;;;;;;29.42;14.43;;;;;;;8.63;91.13;101000.31;1770736;80;21477;-52
2021/12/10 02:17:44;;;;;;;26.07;13.45;;;;;;;8.58;91.15;101003.98;1770948;80;21193;-53
2021/12/10 02:21:17;;;;;;;24.70;14.03;;;;;;;8.52;91.29;101002.72;1771154;80;21287;-51
2021/12/10 02:24:25;;;;;;;27.45;13.13;;;;;;;8.51;91.50;101004.23;1762794;81;21788;-51
2021/12/10 02:27:31;;;;;;;26.85;13.95;;;;;;;8.47;91.65;101006.39;1770853;80;21209;-50
2021/12/10 02:30:39;;;;;;;26.35;13.93;;;;;;;8.48;91.74;101012.20;1770889;80;21390;-50
2021/12/10 02:33:45;;;;;;;25.20;13.40;;;;;;;8.44;91.81;101003.09;1770707;81;21261;-51
2021/12/10 02:36:51;;;;;;;21.37;12.25;;;;;;;8.45;92.03;101011.66;1770877;80;21204;-53
2021/12/10 02:39:57;;;;;;;23.90;12.55;;;;;;;8.46;92.15;101009.27;1770882;80;21208;-52
2021/12/10 02:43:04;;;;;;;25.52;13.32;;;;;;;8.52;92.38;101012.77;1771117;80;21213;-50
2021/12/10 02:46:14;;;;;;;21.02;11.55;;;;;;;8.53;92.22;101007.16;1771186;80;21188;-51
2021/12/10 02:49:20;;;;;;;20.68;11.50;;;;;;;8.57;92.32;101014.55;1770685;80;21288;-51
2021/12/10 02:52:27;;;;;;;21.70;11.93;;;;;;;8.55;92.09;101011.98;1770516;81;21201;-49
2021/12/10 02:55:33;;;;;;;21.60;11.65;;;;;;;8.53;91.90;101016.71;1770787;81;21201;-50
2021/12/10 02:58:40;;;;;;;21.40;12.00;;;;;;;8.53;91.94;101016.71;1770341;81;21228;-51
2021/12/10 03:01:51;;;;;;;22.45;11.95;;;;;;;8.53;91.74;101019.97;1770151;80;21194;-51
2021/12/10 03:04:57;;;;;;;21.10;11.40;;;;;;;8.46;91.54;101017.45;1770643;80;21185;-50
2021/12/10 03:08:04;;;;;;;20.80;11.57;;;;;;;8.41;91.53;101023.84;1769810;80;21220;-51
2021/12/10 03:11:11;;;;;;;26.68;12.95;;;;;;;8.37;91.52;101021.07;1770356;81;21193;-51
2021/12/10 03:14:19;;;;;;;22.00;12.25;;;;;;;8.36;91.72;101024.79;1771093;80;21268;-50
2021/12/10 03:17:36;;;;;;;24.23;14.07;;;;;;;8.41;91.86;101022.48;1763332;80;21173;-52
2021/12/10 03:20:41;;;;;;;24.80;13.40;;;;;;;8.47;91.99;101028.22;1771143;80;21185;-53
2021/12/10 03:23:51;;;;;;;24.63;13.38;;;;;;;8.50;91.84;101038.84;1770843;81;21256;-51
2021/12/10 03:27:01;;;;;;;30.27;14.15;;;;;;;8.50;91.74;101031.17;1770941;81;21623;-53
2021/12/10 03:30:09;;;;;;;23.95;13.32;;;;;;;8.46;91.80;101036.55;1771041;80;21216;-52
2021/12/10 03:33:14;;;;;;;27.13;14.18;;;;;;;8.46;91.79;101036.55;1770840;81;21224;-51
2021/12/10 03:36:20;;;;;;;26.77;13.75;;;;;;;8.43;91.78;101043.67;1770732;81;21176;-52
2021/12/10 03:39:30;;;;;;;27.62;15.48;;;;;;;8.35;91.61;101040.81;1763888;81;21201;-52
2021/12/10 03:42:36;;;;;;;30.55;14.33;;;;;;;8.28;91.58;101042.38;1770939;80;21212;-52
2021/12/10 03:45:47;;;;;;;35.33;15.60;;;;;;;8.23;91.70;101044.19;1770920;80;21306;-51
2021/12/10 03:48:54;;;;;;;34.92;16.62;;;;;;;8.22;91.86;101040.20;1771296;80;21233;-51
2021/12/10 03:52:00;;;;;;;30.90;15.13;;;;;;;8.19;92.04;101046.83;1771022;80;21264;-52
2021/12/10 03:55:07;;;;;;;36.68;16.57;;;;;;;8.21;92.33;101048.91;1771045;81;21259;-51
2021/12/10 03:58:13;;;;;;;29.82;16.77;;;;;;;8.27;92.47;101048.86;1770860;81;21718;-51
2021/12/10 04:01:20;;;;;;;32.13;16.35;;;;;;;8.26;92.31;101053.97;1770753;81;21396;-51
2021/12/10 04:04:31;;;;;;;27.10;15.58;;;;;;;8.23;92.30;101058.34;1770974;81;21756;-51
2021/12/10 04:07:38;;;;;;;35.40;17.07;;;;;;;8.21;92.27;101048.04;1770451;81;21196;-54
2021/12/10 04:10:44;;;;;;;32.53;16.60;;;;;;;8.17;92.28;101058.38;1771456;79;21217;-54
2021/12/10 04:13:53;;;;;;;48.83;15.88;;;;;;;8.14;92.26;101061.88;1770682;81;21241;-54
2021/12/10 04:16:59;;;;;;;44.13;17.30;;;;;;;8.15;92.46;101061.73;1770733;81;21235;-53
2021/12/10 04:20:07;;;;;;;41.18;17.57;;;;;;;8.13;92.48;101057.45;1770824;81;21765;-54
2021/12/10 04:23:15;;;;;;;35.23;17.52;;;;;;;8.11;92.59;101062.17;1770837;80;21200;-54
2021/12/10 04:26:24;;;;;;;34.23;17.77;;;;;;;8.10;92.69;101064.06;1771002;81;21286;-53
2021/12/10 04:29:30;;;;;;;35.13;17.67;;;;;;;8.08;92.77;101062.46;1770597;81;21220;-53
2021/12/10 04:32:37;;;;;;;31.65;17.62;;;;;;;8.05;92.77;101059.53;1770703;81;22174;-54
2021/12/10 04:35:43;;;;;;;34.25;18.57;;;;;;;8.08;92.98;101047.47;1770948;81;21240;-54
2021/12/10 04:38:49;;;;;;;36.65;19.40;;;;;;;8.12;93.10;101047.55;1770749;81;21316;-55
2021/12/10 04:41:54;;;;;;;38.33;19.80;;;;;;;8.18;93.09;101058.72;1770908;81;21208;-54
2021/12/10 04:45:03;;;;;;;39.63;21.45;;;;;;;8.20;92.84;101062.66;1771572;80;21217;-53
2021/12/10 04:48:08;;;;;;;41.23;22.60;;;;;;;8.17;92.53;101057.50;1770892;80;21232;-54
2021/12/10 04:51:16;;;;;;;43.30;22.35;;;;;;;8.13;92.31;101058.31;1770540;81;21256;-56
2021/12/10 04:54:21;;;;;;;43.25;24.20;;;;;;;8.13;92.20;101060.17;1770660;81;21340;-53
2021/12/10 04:57:28;;;;;;;47.48;25.20;;;;;;;8.11;92.05;101068.50;1770930;81;21331;-53
2021/12/10 05:00:42;;;;;;;48.85;27.48;;;;;;;8.11;92.07;101067.13;1770874;80;21354;-54
2021/12/10 05:03:49;;;;;;;49.55;25.25;;;;;;;8.11;92.00;101083.50;1770993;81;21225;-53
2021/12/10 05:06:54;;;;;;;45.43;24.15;;;;;;;8.11;91.83;101082.62;1771112;81;21343;-54
2021/12/10 05:10:02;;;;;;;42.67;22.20;;;;;;;8.12;91.79;101083.00;1769913;80;21461;-52
2021/12/10 05:13:09;;;;;;;43.65;23.55;;;;;;;8.12;91.55;101085.73;1770804;81;21228;-53
2021/12/10 05:16:17;;;;;;;36.80;21.35;;;;;;;8.03;91.24;101086.56;1770851;81;21292;-53
2021/12/10 05:19:27;;;;;;;37.85;21.45;;;;;;;8.00;91.38;101096.39;1771003;81;21307;-52
2021/12/10 05:22:33;;;;;;;38.60;21.40;;;;;;;7.98;91.25;101095.17;1771056;81;21367;-52
2021/12/10 05:25:39;;;;;;;39.03;21.27;;;;;;;7.96;91.18;101092.25;1770727;81;21201;-52
2021/12/10 05:28:45;;;;;;;34.20;18.57;;;;;;;7.92;91.13;101101.20;1771062;81;21884;-53
2021/12/10 05:31:55;;;;;;;40.10;20.80;;;;;;;7.94;91.20;101102.42;1771130;81;21304;-52
2021/12/10 05:35:02;;;;;;;44.73;22.90;;;;;;;7.97;91.33;101105.73;1770742;81;21338;-53
2021/12/10 05:38:08;;;;;;;45.98;23.25;;;;;;;8.00;91.28;101113.62;1770152;81;21714;-53
2021/12/10 05:41:14;;;;;;;49.45;24.47;;;;;;;8.01;91.24;101109.88;1771250;80;21181;-53
2021/12/10 05:44:20;;;;;;;53.08;27.95;;;;;;;8.01;91.26;101114.50;1770171;81;21750;-53
2021/12/10 05:47:27;;;;;;;55.10;27.45;;;;;;;8.01;91.42;101118.59;1770586;80;21176;-53
2021/12/10 05:50:33;;;;;;;48.85;24.98;;;;;;;8.07;91.55;101121.58;1757674;80;21201;-54
2021/12/10 05:53:39;;;;;;;47.67;25.30;;;;;;;8.10;91.54;101129.50;1690007;84;21414;-53
2021/12/10 05:56:51;;;;;;;42.35;22.70;;;;;;;8.11;91.27;101128.98;1729908;82;22164;-53
2021/12/10 05:59:57;;;;;;;43.80;22.70;;;;;;;8.07;91.13;101136.58;1744106;81;21557;-53
2021/12/10 06:03:02;;;;;;;39.73;21.15;;;;;;;8.06;91.11;101129.91;1747419;81;21773;-54
2021/12/10 06:06:08;;;;;;;43.33;22.40;;;;;;;8.02;91.01;101140.75;1737946;82;21177;-53
2021/12/10 06:09:15;;;;;;;45.05;21.65;;;;;;;8.02;91.12;101136.66;1739752;81;21265;-53
2021/12/10 06:12:24;;;;;;;42.78;22.50;;;;;;;8.02;91.05;101138.89;1757582;80;21200;-53
2021/12/10 06:15:31;;;;;;;47.25;23.27;;;;;;;8.04;91.02;101142.31;1760362;81;21192;-55
2021/12/10 06:18:38;;;;;;;46.48;22.93;;;;;;;8.04;90.89;101142.31;1742477;81;21228;-54
2021/12/10 06:21:43;;;;;;;46.95;23.83;;;;;;;8.02;90.85;101153.02;1736981;82;21468;-54
2021/12/10 06:24:50;;;;;;;52.75;25.65;;;;;;;8.02;90.82;101153.89;1737416;82;21725;-54
2021/12/10 06:27:59;;;;;;;61.20;28.90;;;;;;;8.05;90.98;101154.09;1738428;82;21859;-53
2021/12/10 06:31:05;;;;;;;51.28;26.90;;;;;;;8.05;90.88;101146.78;1738732;81;21173;-54
2021/12/10 06:34:11;;;;;;;43.68;23.57;;;;;;;8.06;90.99;101138.95;1739283;82;21304;-54
2021/12/10 06:37:16;;;;;;;39.98;21.73;;;;;;;8.10;91.01;101146.36;1766488;80;21344;-54
2021/12/10 06:40:25;;;;;;;42.13;22.35;;;;;;;8.11;90.56;101141.25;1757402;81;21975;-54
2021/12/10 06:43:31;;;;;;;40.20;23.38;;;;;;;8.07;90.25;101148.01;1770462;80;21229;-54
2021/12/10 06:46:39;;;;;;;35.17;21.82;;;;;;;8.03;90.14;101151.52;1770336;81;21217;-55
2021/12/10 06:49:44;;;;;;;43.28;22.02;;;;;;;8.03;90.00;101152.00;1754544;81;21328;-54
2021/12/10 06:52:51;;;;;;;38.38;22.42;;;;;;;8.05;90.02;101151.37;1749322;81;21407;-53
2021/12/10 06:55:58;;;;;;;42.08;23.40;;;;;;;8.05;89.91;101152.73;1753211;80;21240;-59
2021/12/10 06:59:06;;;;;;;39.55;22.80;;;;;;;8.07;89.79;101153.46;1741583;81;21212;-54
2021/12/10 07:02:11;;;;;;;36.88;21.00;;;;;;;8.13;89.86;101154.25;1743627;81;21251;-54
2021/12/10 07:05:18;;;;;;;36.15;20.45;;;;;;;8.17;89.71;101163.37;1752195;81;21244;-53
2021/12/10 07:08:26;;;;;;;34.18;20.17;;;;;;;8.19;89.45;101156.41;1747238;81;21601;-53
2021/12/10 07:11:32;;;;;;;32.23;19.57;;;;;;;8.19;89.10;101164.59;1739079;81;21201;-53
2021/12/10 07:14:37;;;;;;;31.87;20.23;;;;;;;8.13;88.60;101171.48;1727047;82;21236;-53
2021/12/10 07:17:45;;;;;;;33.55;20.45;;;;;;;8.03;88.10;101174.69;1726400;81;21215;-54
2021/12/10 07:20:51;;;;;;;31.95;19.82;;;;;;;7.94;87.96;101170.58;1735533;82;21227;-54
2021/12/10 07:23:57;;;;;;;35.05;20.65;;;;;;;7.86;87.98;101170.41;1730224;81;21284;-55
2021/12/10 07:27:06;;;;;;;40.88;25.90;;;;;;;7.86;88.17;101175.37;1727798;82;21883;-54
2021/12/10 07:30:17;;;;;;;33.15;20.77;;;;;;;7.87;88.12;101178.45;1729447;82;21919;-55
2021/12/10 07:33:38;;;;;;;32.25;20.15;;;;;;;7.89;88.12;101182.39;1716301;82;21224;-55
2021/12/10 07:36:44;;;;;;;32.00;19.12;;;;;;;7.89;87.72;101189.20;1708924;82;21214;-55
2021/12/10 07:39:50;;;;;;;29.45;18.90;;;;;;;7.87;87.55;101187.11;1702075;82;21861;-53
2021/12/10 07:42:57;;;;;;;30.15;19.25;;;;;;;7.90;87.49;101186.83;1723722;82;21632;-55
2021/12/10 07:46:04;;;;;;;28.38;18.05;;;;;;;7.96;87.46;101178.12;1711160;83;21186;-53
2021/12/10 07:49:15;;;;;;;30.75;19.60;;;;;;;8.03;87.43;101180.62;1723886;83;21264;-54
2021/12/10 07:52:27;;;;;;;29.23;18.05;;;;;;;8.10;87.27;101184.53;1721833;82;21165;-54
2021/12/10 07:55:29;;;;;;;30.52;19.10;;;;;;;8.18;87.09;101188.78;1731912;82;21177;-54
2021/12/10 07:58:34;;;;;;;30.55;19.07;;;;;;;8.28;87.06;101194.64;1734379;82;21195;-53
2021/12/10 08:01:42;;;;;;;31.48;19.05;;;;;;;8.37;86.89;101187.48;1710120;83;21702;-54
2021/12/10 08:04:48;;;;;;;28.05;18.48;;;;;;;8.45;86.53;101189.84;1719610;82;21701;-54
2021/12/10 08:07:59;;;;;;;30.88;19.07;;;;;;;8.46;85.98;101193.44;1715299;82;21234;-55
2021/12/10 08:11:06;;;;;;;28.70;18.17;;;;;;;8.52;86.01;101194.22;1731704;82;21223;-55
2021/12/10 08:14:16;;;;;;;25.00;17.48;;;;;;;8.58;85.78;101190.42;1755124;80;21589;-55
2021/12/10 08:17:27;;;;;;;29.63;18.10;;;;;;;8.61;85.27;101184.67;1760229;81;21869;-55
2021/12/10 08:20:34;;;;;;;29.45;19.52;;;;;;;8.60;84.87;101189.79;1729451;83;21753;-56
2021/12/10 08:23:42;;;;;;;28.32;19.00;;;;;;;8.63;84.86;101189.50;1743009;81;21212;-55
2021/12/10 08:26:49;;;;;;;33.10;21.00;;;;;;;8.70;84.87;101192.52;1740137;80;21345;-56
2021/12/10 08:30:03;;;;;;;29.35;19.05;;;;;;;8.72;84.59;101180.96;1740396;81;21321;-54
2021/12/10 08:33:14;;;;;;;37.58;23.10;;;;;;;8.73;84.45;101182.67;1743514;81;21217;-54
2021/12/10 08:36:36;;;;;;;33.63;20.10;;;;;;;8.71;84.27;101188.28;1756011;81;21189;-53
2021/12/10 08:39:48;;;;;;;35.80;20.85;;;;;;;8.69;84.06;101184.82;1768898;80;21208;-54
2021/12/10 08:42:59;;;;;;;36.88;22.15;;;;;;;8.66;83.89;101186.48;1693494;83;21219;-55
2021/12/10 08:46:08;;;;;;;35.55;21.25;;;;;;;8.71;84.14;101188.77;1739073;82;21755;-57
2021/12/10 08:49:17;;;;;;;43.30;23.25;;;;;;;8.77;84.21;101175.91;1739517;82;21203;-53
2021/12/10 08:52:26;;;;;;;39.15;23.32;;;;;;;8.83;83.98;101173.45;1742459;80;21200;-54
2021/12/10 08:55:32;;;;;;;47.78;29.23;;;;;;;8.87;83.90;101168.08;1758296;81;21626;-55
2021/12/10 08:58:38;;;;;;;41.33;25.37;;;;;;;8.95;83.95;101175.53;1768586;81;21550;-55
2021/12/10 09:01:47;;;;;;;45.30;25.92;;;;;;;9.00;83.71;101165.91;1760754;80;21184;-55
2021/12/10 09:05:04;;;;;;;48.78;26.97;;;;;;;9.06;83.79;101168.54;1752987;80;21224;-55
2021/12/10 09:08:24;;;;;;;48.13;26.87;;;;;;;9.10;83.58;101172.72;1740500;82;21294;-54
2021/12/10 09:11:39;;;;;;;51.00;27.02;;;;;;;9.17;83.55;101169.73;1855523;76;22259;-54
2021/12/10 09:14:49;;;;;;;52.85;28.05;;;;;;;9.16;83.57;101169.39;1752958;80;21236;-55
2021/12/10 09:17:58;;;;;;;54.35;28.67;;;;;;;9.20;83.29;101165.34;1768280;81;21206;-56
2021/12/10 09:21:08;;;;;;;48.73;27.00;;;;;;;9.21;83.17;101158.02;1769977;80;21161;-55
2021/12/10 09:24:17;;;;;;;51.75;28.98;;;;;;;9.27;83.17;101161.51;1770161;80;21339;-53
2021/12/10 09:27:24;;;;;;;46.58;25.43;;;;;;;9.30;82.90;101166.18;1770446;80;21703;-54
2021/12/10 09:30:37;;;;;;;43.40;25.20;;;;;;;9.37;82.88;101163.72;1757309;80;21228;-54
2021/12/10 09:33:44;;;;;;;47.33;26.70;;;;;;;9.46;82.86;101165.55;1745770;81;21832;-54
2021/12/10 09:36:54;;;;;;;45.48;25.92;;;;;;;9.50;82.55;101159.63;1772259;80;21694;-55
2021/12/10 09:40:03;;;;;;;47.10;25.27;;;;;;;9.49;82.24;101163.38;1772654;80;21362;-59
2021/12/10 09:43:18;;;;;;;41.48;23.60;;;;;;;9.50;82.18;101155.52;1773228;80;21865;-55
2021/12/10 09:46:31;;;;;;;53.08;27.52;;;;;;;9.50;81.91;101157.42;1753723;80;21196;-55
2021/12/10 09:49:37;;;;;;;45.40;24.95;;;;;;;9.40;81.75;101148.39;1741445;82;21240;-55
2021/12/10 09:52:44;;;;;;;47.23;25.80;;;;;;;9.40;81.89;101147.89;1763369;81;21197;-55
2021/12/10 09:55:53;;;;;;;42.98;24.45;;;;;;;9.42;81.87;101145.84;1754677;80;21491;-55
2021/12/10 09:59:00;;;;;;;42.88;24.05;;;;;;;9.41;81.83;101154.20;1731383;82;21216;-55
2021/12/10 10:02:06;;;;;;;38.40;23.80;;;;;;;9.45;81.87;101150.17;1740106;81;21847;-54
2021/12/10 10:05:12;;;;;;;39.85;24.27;;;;;;;9.50;81.78;101149.22;1749053;81;21241;-54
2021/12/10 10:08:21;;;;;;;40.35;23.05;;;;;;;9.49;81.73;101144.74;1767985;81;21240;-54
2021/12/10 10:11:31;;;;;;;36.68;20.48;;;;;;;9.49;81.64;101144.25;1767508;80;21212;-56
2021/12/10 10:14:36;;;;;;;33.45;20.97;;;;;;;9.49;81.72;101136.05;1770322;80;21522;-55
2021/12/10 10:17:46;;;;;;;35.05;22.22;;;;;;;9.51;81.69;101140.00;1760918;80;21251;-56
2021/12/10 10:20:56;;;;;;;36.05;22.02;;;;;;;9.57;81.60;101134.80;1738820;82;21370;-56
2021/12/10 10:24:12;;;;;;;32.10;21.07;;;;;;;9.56;81.42;101135.78;1738417;82;21761;-56
2021/12/10 10:27:19;;;;;;;36.15;21.70;;;;;;;9.61;81.71;101125.79;1739825;82;21342;-57
2021/12/10 10:30:39;;;;;;;39.23;23.27;;;;;;;9.64;81.35;101120.85;1740189;82;21309;-56
2021/12/10 10:33:47;;;;;;;34.53;22.82;;;;;;;9.67;81.48;101116.45;1753096;81;21217;-56
2021/12/10 10:36:53;;;;;;;37.95;22.37;;;;;;;9.71;81.20;101112.41;1763125;80;21204;-55
2021/12/10 10:40:04;;;;;;;39.15;23.92;;;;;;;9.72;81.07;101110.55;1748866;80;21200;-55
2021/12/10 10:43:12;;;;;;;37.67;22.93;;;;;;;9.77;81.26;101109.06;1739399;81;21208;-55
2021/12/10 10:46:17;;;;;;;37.73;22.85;;;;;;;9.85;81.26;101106.42;1739089;82;21191;-55
2021/12/10 10:49:44;;;;;;;39.10;24.47;;;;;;;9.94;81.13;101109.59;1739933;81;21224;-56
2021/12/10 10:52:56;;;;;;;40.20;23.92;;;;;;;10.00;80.98;101102.66;1742889;81;21465;-55
2021/12/10 10:56:10;;;;;;;37.55;24.35;;;;;;;10.04;80.76;101104.92;1768140;80;21205;-56
2021/12/10 10:59:30;;;;;;;40.45;25.27;;;;;;;10.08;80.81;101096.81;1767883;80;21345;-54
2021/12/10 11:02:41;;;;;;;44.38;25.00;;;;;;;10.23;81.04;101101.20;1749504;80;21197;-57
2021/12/10 11:06:01;;;;;;;41.15;26.00;;;;;;;10.39;80.81;101102.73;1742241;81;21189;-57
2021/12/10 11:09:27;;;;;;;38.55;25.23;;;;;;;10.45;80.33;101104.34;1766851;80;21189;-56
2021/12/10 11:12:36;;;;;;;39.85;25.12;;;;;;;10.41;79.94;101109.79;1753219;80;21275;-56
2021/12/10 11:15:51;;;;;;;36.30;23.70;;;;;;;10.32;79.60;101106.61;1761144;81;21209;-56
2021/12/10 11:19:18;;;;;;;42.55;25.15;;;;;;;10.21;79.87;101108.73;1732692;82;21263;-56
2021/12/10 11:22:24;;;;;;;46.45;26.48;;;;;;;10.12;80.13;101101.44;1752390;81;21702;-56
2021/12/10 11:25:37;;;;;;;42.27;25.10;;;;;;;10.02;80.38;101104.21;1750183;81;21309;-53
2021/12/10 11:28:44;;;;;;;;;;;;;;;9.99;80.85;101109.16;1742594;82;21220;-53
2021/12/10 11:31:49;;;;;;;36.40;22.87;;;;;;;9.88;80.70;101106.61;1744532;80;20615;-52
2021/12/10 11:35:04;;;;;;;38.35;23.52;;;;;;;9.83;81.43;101105.70;1737114;82;21763;-52
2021/12/10 11:38:24;;;;;;;35.35;23.77;;;;;;;9.88;81.71;101098.41;1738123;82;21226;-52
2021/12/10 11:41:38;;;;;;;40.63;24.50;;;;;;;9.90;81.79;101097.75;1738635;81;21536;-52
2021/12/10 11:45:04;;;;;;;36.35;23.47;;;;;;;9.90;81.80;101092.28;1755386;81;21228;-52
2021/12/10 11:48:04;;;;;;;34.98;23.60;;;;;;;9.88;81.96;101102.50;1767365;80;21989;-51
2021/12/10 11:51:15;;;;;;;34.85;21.93;;;;;;;9.83;82.15;101099.41;1759292;79;21189;-52
2021/12/10 11:54:38;;;;;;;37.23;23.57;;;;;;;9.81;82.30;101098.19;1758228;81;21189;-51
2021/12/10 11:57:50;;;;;;;37.33;21.73;;;;;;;9.88;82.45;101111.58;1768072;80;21242;-52
2021/12/10 12:00:55;;;;;;;35.73;23.50;;;;;;;9.91;82.46;101105.80;1760283;80;21212;-51
2021/12/10 12:04:02;;;;;;;35.03;22.95;;;;;;;9.97;82.50;101109.28;1747048;81;21748;-52
2021/12/10 12:07:43;;;;;;;36.55;23.45;;;;;;;10.04;82.49;101109.03;1744516;81;21625;-54
2021/12/10 12:10:52;;;;;;;42.73;22.25;;;;;;;10.08;82.46;101108.25;1768576;81;21215;-53
2021/12/10 12:14:02;;;;;;;37.95;22.65;;;;;;;10.08;82.42;101107.75;1769023;80;21577;-53
2021/12/10 12:17:13;;;;;;;38.60;22.50;;;;;;;10.10;82.45;101120.75;1756714;80;21180;-53
2021/12/10 12:20:54;;;;;;;34.75;21.87;;;;;;;10.10;82.64;101110.34;1749532;81;21196;-53
2021/12/10 12:27:39;;;;;;;31.52;21.33;;;;;;;10.28;82.48;101099.73;1726282;81;21195;-52
2021/12/10 12:31:12;;;;;;;40.00;23.83;;;;;;;10.28;82.30;101094.27;1749789;81;21220;-53
2021/12/10 12:34:32;;;;;;;39.45;22.13;;;;;;;10.33;82.34;101092.42;1750722;81;21224;-53
2021/12/10 12:37:38;;;;;;;33.75;20.68;;;;;;;10.41;82.31;101088.39;1741324;82;21319;-53
2021/12/10 12:40:45;;;;;;;36.98;23.18;;;;;;;10.45;82.08;101093.39;1742367;81;21941;-53
2021/12/10 12:43:54;;;;;;;42.93;22.35;;;;;;;10.44;81.88;101096.28;1767232;81;21478;-53
2021/12/10 12:47:10;;;;;;;40.43;23.02;;;;;;;10.41;81.64;101108.42;1750207;81;21185;-54
2021/12/10 12:50:36;;;;;;;44.15;21.33;;;;;;;10.37;81.73;101109.73;1753652;80;21777;-53
2021/12/10 12:53:42;;;;;;;34.63;20.32;;;;;;;10.37;81.83;101100.16;1767067;80;21231;-51
2021/12/10 12:56:48;;;;;;;36.65;21.65;;;;;;;10.38;81.72;101099.16;1747527;81;21196;-51
2021/12/10 12:59:59;;;;;;;37.10;23.25;;;;;;;10.33;81.58;101086.45;1760180;81;21742;-52
2021/12/10 13:03:22;;;;;;;37.88;23.92;;;;;;;10.23;81.48;101089.77;1759365;81;21192;-52
2021/12/10 13:06:44;;;;;;;31.97;22.27;;;;;;;10.14;81.63;101081.63;1747799;81;21283;-52
2021/12/10 13:09:56;;;;;;;40.10;22.20;;;;;;;10.06;81.93;101091.97;1746916;80;21200;-52
2021/12/10 13:13:15;;;;;;;45.28;25.90;;;;;;;10.05;82.19;101083.38;1748228;81;21896;-52
2021/12/10 13:16:37;;;;;;;40.28;24.05;;;;;;;10.05;82.29;101079.81;1751252;80;21212;-52
2021/12/10 13:20:19;;;;;;;36.70;23.50;;;;;;;10.01;82.29;101083.85;1740467;80;21301;-52
2021/12/10 13:23:30;;;;;;;35.33;22.27;;;;;;;9.95;82.59;101099.03;1751694;81;21263;-53
2021/12/10 13:26:37;;;;;;;34.88;21.42;;;;;;;9.93;82.87;101095.58;1756635;80;21841;-53
2021/12/10 13:29:51;;;;;;;33.02;21.75;;;;;;;9.95;82.99;101100.89;1767199;81;21200;-53
2021/12/10 13:32:59;;;;;;;35.48;21.50;;;;;;;9.92;82.98;101099.34;1752256;81;21690;-52
2021/12/10 13:36:08;;;;;;;36.38;21.00;;;;;;;9.91;83.11;101100.33;1756111;81;21451;-52
2021/12/10 13:39:15;;;;;;;32.10;20.50;;;;;;;9.89;83.14;101101.52;1772170;80;22025;-53
2021/12/10 13:42:24;;;;;;;28.00;18.55;;;;;;;9.87;83.12;101097.56;1762239;80;21212;-52
2021/12/10 13:45:33;;;;;;;29.90;18.00;;;;;;;9.81;83.06;101095.45;1760797;80;21201;-55
2021/12/10 13:48:56;;;;;;;29.10;18.42;;;;;;;9.80;83.14;101087.41;1749522;80;21240;-53
2021/12/10 13:52:01;;;;;;;32.42;19.42;;;;;;;9.80;83.19;101092.34;1747945;81;22107;-52
2021/12/10 13:55:07;;;;;;;25.25;16.93;;;;;;;9.77;83.18;101096.76;1738762;81;21212;-52
2021/12/10 13:58:31;;;;;;;25.25;17.60;;;;;;;9.75;83.16;101100.14;1756797;80;21612;-53
2021/12/10 14:01:35;;;;;;;29.45;16.93;;;;;;;9.74;83.21;101103.90;1747862;81;21209;-53
2021/12/10 14:04:47;;;;;;;27.30;18.00;;;;;;;9.72;83.10;101104.55;1752832;80;21781;-54
2021/12/10 14:08:09;;;;;;;29.12;18.10;;;;;;;9.67;83.16;101110.98;1766984;80;21271;-53
2021/12/10 14:11:40;;;;;;;26.70;17.42;;;;;;;9.64;83.36;101101.72;1767079;81;21632;-53
2021/12/10 14:14:43;;;;;;;27.27;18.90;;;;;;;9.55;83.63;101089.47;1762552;80;21271;-53
2021/12/10 14:18:10;;;;;;;28.20;17.35;;;;;;;9.52;83.96;101072.88;1738878;82;21205;-54
2021/12/10 14:21:22;;;;;;;29.15;17.57;;;;;;;9.41;84.16;101075.82;1715537;82;21184;-52
2021/12/10 14:24:46;;;;;;;26.42;16.97;;;;;;;9.41;84.66;101091.34;1699682;83;21256;-53
2021/12/10 14:28:02;;;;;;;25.95;16.75;;;;;;;9.41;84.79;101092.22;1695326;83;21236;-53
2021/12/10 14:31:09;;;;;;;27.65;17.40;;;;;;;9.43;85.00;101090.20;1752208;81;21208;-53
2021/12/10 14:34:22;;;;;;;29.67;17.75;;;;;;;9.46;85.07;101084.43;1739414;81;21224;-54
2021/12/10 14:37:27;;;;;;;26.37;17.87;;;;;;;9.50;85.08;101098.66;1738685;81;21672;-52
2021/12/10 14:40:40;;;;;;;24.43;15.78;;;;;;;9.52;85.05;101122.58;1739399;82;21200;-52
2021/12/10 14:43:55;;;;;;;22.60;15.72;;;;;;;9.55;85.00;101116.80;1739926;81;21283;-53